Time;durP1;ratioP1;P1;durP2;ratioP2;P2;SDS_P1;SDS_P2;PMS_P1;PMS_P2;Temp;Humidity;BMP_temperature;BMP_pressure;BME280_temperature;BME280_humidity;BME280_pressure;Samples;Min_cycle;Max_cycle;Signal;HPM_P1;HPM_P2
2021/09/07 09:00:49;;;;;;;16.93;14.33;;;27.30;54.10;;;;;;5149137;23;20491;-90
2021/09/07 09:03:16;;;;;;;15.73;14.20;;;27.60;53.30;;;;;;4833788;29;20508;-90
2021/09/07 09:05:43;;;;;;;14.90;13.70;;;27.50;51.30;;;;;;4833964;29;20451;-87
2021/09/07 09:08:17;;;;;;;14.77;13.53;;;27.90;50.80;;;;;;4846399;29;20439;-90
2021/09/07 09:10:45;;;;;;;13.63;12.47;;;28.10;50.10;;;;;;4835343;29;20883;-93
2021/09/07 09:13:18;;;;;;;15.00;13.70;;;;;;;;;;4846181;29;20562;-93
2021/09/07 09:16:05;;;;;;;16.27;14.60;;;;;;;;;;4844275;29;20424;-90
2021/09/07 09:18:36;;;;;;;17.17;13.90;;;;;;;;;;4848377;29;20420;-92
2021/09/07 09:21:22;;;;;;;13.90;12.70;;;;;;;;;;4849045;29;20432;-91
2021/09/07 09:24:20;;;;;;;14.83;13.43;;;27.60;47.20;;;;;;4846853;29;20491;-89
2021/09/07 09:26:50;;;;;;;13.20;12.27;;;27.30;48.10;;;;;;4832012;29;20424;-89
2021/09/07 09:29:20;;;;;;;13.60;12.60;;;27.60;48.00;;;;;;4850968;29;20907;-85
2021/09/07 09:31:55;;;;;;;15.83;14.43;;;28.80;47.30;;;;;;4843551;29;20535;-89
2021/09/07 09:34:20;;;;;;;12.07;11.07;;;28.10;46.80;;;;;;4841831;29;20450;-87
2021/09/07 09:36:56;;;;;;;12.30;11.30;;;28.30;46.30;;;;;;4840992;29;20459;-86
2021/09/07 09:39:43;;;;;;;15.80;12.17;;;28.70;45.80;;;;;;4839535;29;20185;-86
2021/09/07 09:42:12;;;;;;;12.30;11.30;;;29.20;45.00;;;;;;4841991;29;20420;-89
2021/09/07 09:44:44;;;;;;;12.43;11.30;;;29.60;44.60;;;;;;4863171;29;20446;-91
2021/09/07 09:47:10;;;;;;;12.37;11.47;;;30.10;44.10;;;;;;4851765;29;20425;-89
2021/09/07 09:49:39;;;;;;;15.07;13.57;;;29.80;43.90;;;;;;4864748;29;20434;-92
2021/09/07 09:52:08;;;;;;;12.70;11.70;;;30.00;43.90;;;;;;4847114;29;20490;-89
2021/09/07 09:54:39;;;;;;;13.27;12.27;;;30.00;43.30;;;;;;4864545;29;20462;-91
2021/09/07 09:57:06;;;;;;;16.63;15.10;;;29.90;42.70;;;;;;4866095;29;20518;-91
2021/09/07 09:59:43;;;;;;;13.77;12.70;;;30.10;42.80;;;;;;4867405;29;20502;-88
2021/09/07 10:02:31;;;;;;;13.50;12.40;;;30.20;42.30;;;;;;4871240;29;20467;-94
2021/09/07 10:05:00;;;;;;;24.50;21.90;;;30.90;41.10;;;;;;4849744;29;20844;-89
2021/09/07 10:07:27;;;;;;;22.33;19.23;;;31.60;41.30;;;;;;4861567;29;20423;-89
2021/09/07 10:09:57;;;;;;;15.30;14.07;;;31.50;39.50;;;;;;4844992;29;20446;-90
2021/09/07 10:12:39;;;;;;;12.83;11.93;;;31.40;39.50;;;;;;4844175;29;20534;-88
2021/09/07 10:15:36;;;;;;;13.43;12.53;;;30.90;39.00;;;;;;4843670;29;20431;-88
2021/09/07 10:18:35;;;;;;;12.63;11.40;;;31.00;39.20;;;;;;4864172;29;20419;-84
2021/09/07 10:21:15;;;;;;;12.30;11.40;;;31.10;38.90;;;;;;4871877;29;20422;-85
2021/09/07 10:23:51;;;;;;;12.97;12.07;;;31.20;38.60;;;;;;4847860;29;20419;-86
2021/09/07 10:26:18;;;;;;;11.47;10.67;;;31.70;38.20;;;;;;4864095;29;20772;-90
2021/09/07 10:28:45;;;;;;;11.87;11.07;;;32.50;38.30;;;;;;4860753;29;20598;-91
2021/09/07 10:31:22;;;;;;;13.30;12.13;;;32.70;37.60;;;;;;4861098;29;20537;-89
2021/09/07 10:33:58;;;;;;;12.33;11.20;;;32.50;36.60;;;;;;4861517;29;20513;-89
2021/09/07 10:36:31;;;;;;;12.63;11.57;;;32.00;37.10;;;;;;4859934;29;20882;-91
2021/09/07 10:38:59;;;;;;;12.77;11.77;;;32.20;37.00;;;;;;4861985;29;20430;-89
2021/09/07 10:41:34;;;;;;;11.83;10.83;;;32.00;37.00;;;;;;4876539;29;20516;-90
2021/09/07 10:44:00;;;;;;;11.43;10.53;;;;;;;;;;4878007;29;20743;-88
2021/09/07 10:46:38;;;;;;;12.13;11.00;;;;;;;;;;4880729;29;20542;-91
2021/09/07 10:49:36;;;;;;;11.93;11.03;;;;;;;;;;4880237;29;20422;-88
2021/09/07 10:52:05;;;;;;;13.47;12.50;;;;;;;;;;4853423;29;20488;-90
2021/09/07 10:54:31;;;;;;;11.43;10.63;;;;;;;;;;4882772;29;20964;-91
2021/09/07 10:56:59;;;;;;;11.87;11.17;;;;;;;;;;4881726;29;20422;-89
2021/09/07 10:59:44;;;;;;;24.90;22.40;;;;;;;;;;4884421;29;20806;-89
2021/09/07 11:02:29;;;;;;;12.70;11.90;;;;;;;;;;4881220;29;21004;-88
2021/09/07 11:04:58;;;;;;;12.57;11.53;;;;;;;;;;4880961;29;20418;-91
2021/09/07 11:07:40;;;;;;;17.63;15.90;;;;;;;;;;4881558;29;20413;-90
2021/09/07 11:10:07;;;;;;;21.10;19.00;;;;;;;;;;4883174;29;20512;-89
2021/09/07 11:12:34;;;;;;;18.37;16.73;;;;;;;;;;4881358;29;20580;-89
2021/09/07 11:15:00;;;;;;;12.87;11.97;;;;;;;;;;4869069;29;20427;-88
2021/09/07 11:17:27;;;;;;;22.37;20.33;;;;;;;;;;4861591;29;20494;-87
2021/09/07 11:20:05;;;;;;;14.77;13.67;;;;;;;;;;4860973;29;20434;-90
2021/09/07 11:22:32;;;;;;;13.30;12.30;;;;;;;;;;4861370;29;20475;-90
2021/09/07 11:25:05;;;;;;;13.57;12.47;;;;;;;;;;4862999;29;20478;-90
2021/09/07 11:27:50;;;;;;;11.23;10.53;;;;;;;;;;4864046;29;20414;-88
2021/09/07 11:30:37;;;;;;;11.87;10.97;;;;;;;;;;4863665;29;20466;-89
2021/09/07 11:33:07;;;;;;;12.97;11.77;;;;;;;;;;4860623;29;20454;-88
2021/09/07 11:35:35;;;;;;;11.50;10.60;;;;;;;;;;4878572;29;20421;-86
2021/09/07 11:38:02;;;;;;;12.80;12.00;;;;;;;;;;4870946;29;20960;-88
2021/09/07 11:40:32;;;;;;;11.97;11.07;;;;;;;;;;4849818;29;20417;-93
2021/09/07 11:43:05;;;;;;;13.87;12.87;;;;;;;;;;4859296;29;20514;-87
2021/09/07 11:45:35;;;;;;;14.00;12.70;;;;;;;;;;4865392;29;20784;-90
2021/09/07 11:48:05;;;;;;;12.93;11.70;;;;;;;;;;4865723;29;20422;-91
2021/09/07 11:50:42;;;;;;;18.37;16.83;;;;;;;;;;4866079;29;20534;-88
2021/09/07 11:53:10;;;;;;;13.20;12.30;;;;;;;;;;4869567;29;20533;-87
2021/09/07 11:55:44;;;;;;;11.60;10.80;;;;;;;;;;4867486;29;20402;-88
2021/09/07 11:58:24;;;;;;;12.53;11.47;;;;;;;;;;4868534;29;20612;-90
2021/09/07 12:01:13;;;;;;;15.07;14.00;;;;;;;;;;4869583;29;20622;-88
2021/09/07 12:03:53;;;;;;;11.30;10.63;;;;;;;;;;4869180;29;20415;-88
2021/09/07 12:06:41;;;;;;;13.00;12.03;;;;;;;;;;4870421;29;20936;-94
2021/09/07 12:09:10;;;;;;;10.90;10.30;;;;;;;;;;4867870;29;20403;-88
2021/09/07 12:11:39;;;;;;;11.17;10.47;;;;;;;;;;4866563;29;20629;-87
2021/09/07 12:14:10;;;;;;;13.60;12.67;;;;;;;;;;4868706;29;20483;-91
2021/09/07 12:16:41;;;;;;;11.63;10.87;;;;;;;;;;4866427;29;20462;-85
2021/09/07 12:19:32;;;;;;;10.93;10.03;;;;;;;;;;4866126;29;20422;-88
2021/09/07 12:22:04;;;;;;;11.67;10.67;;;;;;;;;;4859673;29;20487;-89
2021/09/07 12:24:34;;;;;;;10.70;10.10;;;;;;;;;;4862967;29;20926;-89
2021/09/07 12:27:27;;;;;;;;;;;;;;;;;;;;;
2021/09/07 12:30:11;;;;;;;9.40;8.90;;;;;;;;;;4846433;29;20499;-86
2021/09/07 12:32:45;;;;;;;9.57;8.63;;;;;;;;;;4831179;29;20479;-89
2021/09/07 12:35:31;;;;;;;10.20;8.90;;;;;;;;;;4828890;29;20475;-88
2021/09/07 12:37:58;;;;;;;9.30;8.53;;;;;;;;;;4845142;29;20484;-91
2021/09/07 12:40:24;;;;;;;9.93;9.23;;;;;;;;;;4848318;29;20420;-81
2021/09/07 12:42:51;;;;;;;10.07;9.37;;;;;;;;;;4831022;29;20436;-89
2021/09/07 12:45:20;;;;;;;9.47;8.83;;;;;;;;;;4830103;29;20455;-87
2021/09/07 12:47:46;;;;;;;9.10;8.53;;;;;;;;;;4829297;29;20477;-87
2021/09/07 12:50:12;;;;;;;9.83;8.83;;;;;;;;;;4829432;29;20435;-86
2021/09/07 12:52:38;;;;;;;25.50;23.07;;;;;;;;;;4848081;29;20519;-87
2021/09/07 12:55:05;;;;;;;15.27;14.00;;;;;;;;;;4845465;29;20407;-89
2021/09/07 12:57:30;;;;;;;10.47;9.77;;;35.80;29.10;;;;;;4828485;29;20438;-87
2021/09/07 12:59:56;;;;;;;10.80;10.10;;;35.50;29.40;;;;;;4845506;29;20463;-87
2021/09/07 13:02:27;;;;;;;10.23;9.23;;;36.20;29.90;;;;;;4851371;29;20189;-91
2021/09/07 13:04:55;;;;;;;10.43;9.73;;;36.70;29.70;;;;;;4838076;29;20186;-94
2021/09/07 13:07:21;;;;;;;10.53;9.93;;;37.50;28.80;;;;;;4837959;29;20534;-91
2021/09/07 13:09:46;;;;;;;9.33;8.83;;;37.50;29.20;;;;;;4838975;29;20495;-88
2021/09/07 13:12:41;;;;;;;10.50;9.50;;;37.50;29.30;;;;;;4853801;29;20225;-93
2021/09/07 13:15:08;;;;;;;9.93;9.40;;;37.60;29.30;;;;;;4799682;29;20250;-91
2021/09/07 13:17:36;;;;;;;11.33;10.33;;;38.40;29.30;;;;;;4835835;29;20443;-90
2021/09/07 13:20:03;;;;;;;10.10;9.30;;;37.90;29.50;;;;;;4853593;29;20430;-89
2021/09/07 13:22:48;;;;;;;9.70;9.10;;;38.30;29.50;;;;;;4840090;29;20564;-92
2021/09/07 13:25:22;;;;;;;9.30;8.70;;;38.20;29.30;;;;;;4860249;29;20450;-92
2021/09/07 13:27:49;;;;;;;10.90;10.20;;;36.50;29.30;;;;;;4843250;29;20463;-91
2021/09/07 13:30:15;;;;;;;9.33;8.80;;;35.90;29.50;;;;;;4852362;29;20455;-92
2021/09/07 13:32:45;;;;;;;8.90;8.30;;;35.90;30.20;;;;;;4854271;29;20490;-90
2021/09/07 13:35:11;;;;;;;8.33;7.93;;;36.10;29.40;;;;;;4849920;29;20206;-87
2021/09/07 13:37:40;;;;;;;8.57;7.97;;;36.50;29.10;;;;;;4848061;29;20744;-93
2021/09/07 13:40:08;;;;;;;9.40;8.50;;;36.20;29.10;;;;;;4850141;29;20536;-91
2021/09/07 13:42:34;;;;;;;10.00;9.40;;;36.40;29.50;;;;;;4855930;29;20438;-88
2021/09/07 13:45:01;;;;;;;8.67;8.17;;;36.60;29.60;;;;;;4841550;29;20431;-92
2021/09/07 13:47:32;;;;;;;9.97;9.33;;;36.00;28.90;;;;;;4879253;29;20182;-92
2021/09/07 13:49:59;;;;;;;9.57;8.83;;;36.80;29.30;;;;;;4858583;29;20430;-93
2021/09/07 13:52:25;;;;;;;10.90;10.03;;;37.00;29.90;;;;;;4860336;29;20479;-89
2021/09/07 13:54:51;;;;;;;10.20;9.17;;;37.20;30.00;;;;;;4834600;29;20927;-87
2021/09/07 13:57:16;;;;;;;9.77;9.17;;;36.30;29.90;;;;;;4847709;29;20254;-91
2021/09/07 13:59:42;;;;;;;14.13;10.87;;;36.00;30.20;;;;;;4848843;29;20241;-89
2021/09/07 14:02:07;;;;;;;9.67;8.97;;;36.20;30.20;;;;;;4829945;29;20183;-87
2021/09/07 14:04:33;;;;;;;9.67;9.07;;;35.50;29.30;;;;;;4838499;29;20233;-89
2021/09/07 14:06:59;;;;;;;9.50;8.87;;;35.80;29.40;;;;;;4847738;29;20181;-88
2021/09/07 14:09:27;;;;;;;7.97;7.47;;;36.00;29.20;;;;;;4864784;29;20174;-89
2021/09/07 14:11:53;;;;;;;7.53;7.13;;;35.80;28.70;;;;;;4850586;29;20218;-89
2021/09/07 14:14:21;;;;;;;9.00;8.40;;;34.80;29.40;;;;;;4864236;29;20496;-87
2021/09/07 14:16:46;;;;;;;7.80;7.37;;;34.50;29.60;;;;;;4850822;29;20235;-92
2021/09/07 14:19:14;;;;;;;8.20;7.70;;;33.70;30.00;;;;;;4869417;29;20431;-90
2021/09/07 14:21:40;;;;;;;10.10;9.30;;;34.00;30.20;;;;;;4854252;29;20182;-88
2021/09/07 14:24:05;;;;;;;7.80;7.30;;;34.20;30.00;;;;;;4865928;29;20419;-92
2021/09/07 14:26:31;;;;;;;8.53;8.03;;;34.80;29.40;;;;;;4866527;29;20185;-90
2021/09/07 14:29:01;;;;;;;10.83;10.23;;;33.20;29.90;;;;;;4851359;29;20200;-91
2021/09/07 14:31:27;;;;;;;9.67;8.83;;;33.50;30.60;;;;;;4869476;29;20220;-90
2021/09/07 14:33:53;;;;;;;10.60;9.23;;;33.60;30.50;;;;;;4866371;29;20522;-87
2021/09/07 14:36:22;;;;;;;8.93;8.30;;;33.60;30.40;;;;;;4869355;29;20201;-95
2021/09/07 14:38:48;;;;;;;9.47;8.77;;;33.60;30.40;;;;;;4866941;29;20179;-89
2021/09/07 14:41:14;;;;;;;10.80;8.83;;;33.50;31.20;;;;;;4849856;29;20452;-90
2021/09/07 14:43:39;;;;;;;12.07;11.00;;;33.20;31.00;;;;;;4865251;29;20434;-91
2021/09/07 14:46:05;;;;;;;9.37;8.57;;;32.50;31.50;;;;;;4850985;29;20178;-92
2021/09/07 14:48:30;;;;;;;11.07;10.30;;;32.60;31.80;;;;;;4869563;29;20170;-90
2021/09/07 14:51:01;;;;;;;9.07;8.40;;;32.60;32.00;;;;;;4850663;29;20320;-92
2021/09/07 14:53:27;;;;;;;24.70;22.10;;;32.40;31.40;;;;;;4865633;29;20224;-90
2021/09/07 14:55:55;;;;;;;10.30;9.37;;;32.50;32.90;;;;;;4862334;29;20797;-92
2021/09/07 14:58:20;;;;;;;11.63;10.83;;;32.00;32.30;;;;;;4869232;29;20178;-90
2021/09/07 15:00:46;;;;;;;9.07;8.47;;;31.20;32.70;;;;;;4850965;29;20546;-91
2021/09/07 15:03:21;;;;;;;8.57;7.93;;;31.00;32.80;;;;;;4851172;29;20178;-92
2021/09/07 15:05:48;;;;;;;9.57;8.87;;;30.40;33.00;;;;;;4866716;29;20439;-92
2021/09/07 15:08:14;;;;;;;9.03;8.40;;;29.90;33.80;;;;;;4854537;29;20435;-90
2021/09/07 15:10:42;;;;;;;7.97;7.50;;;29.90;34.10;;;;;;4871651;29;20828;-92
2021/09/07 15:13:08;;;;;;;10.03;9.13;;;29.80;33.90;;;;;;4851020;29;20435;-90
2021/09/07 15:15:36;;;;;;;9.47;8.30;;;29.50;34.70;;;;;;4851570;29;20430;-91
2021/09/07 15:18:04;;;;;;;7.93;7.47;;;29.10;34.70;;;;;;4850862;29;20242;-89
2021/09/07 15:20:30;;;;;;;8.53;7.93;;;28.90;35.00;;;;;;4852944;29;20429;-88
2021/09/07 15:24:10;;;;;;;9.77;8.70;;;28.10;34.60;;;;;;5095802;27;20630;-92
2021/09/07 15:26:37;;;;;;;9.50;8.57;;;29.00;35.80;;;;;;5079987;28;20417;-89
2021/09/07 15:29:03;;;;;;;10.57;9.53;;;29.00;35.90;;;;;;5079746;28;20537;-89
2021/09/07 15:31:31;;;;;;;10.63;9.67;;;29.10;36.00;;;;;;5079038;28;20946;-90
2021/09/07 15:34:06;;;;;;;8.90;8.30;;;28.80;36.40;;;;;;5077598;28;20420;-91
2021/09/07 15:36:32;;;;;;;8.63;8.10;;;28.70;36.60;;;;;;5075543;28;20970;-88
2021/09/07 15:39:03;;;;;;;9.50;8.80;;;28.70;36.20;;;;;;5076602;28;20484;-88
2021/09/07 15:41:31;;;;;;;10.30;9.40;;;28.50;36.50;;;;;;5078223;28;20947;-89
2021/09/07 15:44:03;;;;;;;9.97;9.13;;;28.30;37.40;;;;;;5078604;28;20464;-91
2021/09/07 15:46:31;;;;;;;9.63;8.97;;;28.00;36.90;;;;;;5077316;28;20405;-88
2021/09/07 15:48:59;;;;;;;9.93;9.13;;;28.40;36.90;;;;;;5078843;28;20409;-88
2021/09/07 15:51:28;;;;;;;9.17;8.47;;;28.30;37.10;;;;;;5078382;28;20409;-91
2021/09/07 15:53:53;;;;;;;13.47;12.17;;;27.70;37.10;;;;;;5094624;28;20502;-90
2021/09/07 15:56:19;;;;;;;11.63;10.70;;;27.60;37.50;;;;;;5078158;28;20405;-88
2021/09/07 15:58:50;;;;;;;14.67;13.30;;;27.60;37.30;;;;;;5094342;28;20167;-91
2021/09/07 16:01:16;;;;;;;10.07;9.27;;;27.40;38.50;;;;;;5078189;28;20190;-89
2021/09/07 16:03:55;;;;;;;11.17;10.00;;;27.40;38.10;;;;;;5074464;28;20479;-92
2021/09/07 16:06:24;;;;;;;10.80;10.00;;;27.20;37.70;;;;;;5075178;28;20224;-89
2021/09/07 16:08:51;;;;;;;14.17;12.97;;;27.20;38.60;;;;;;5076924;28;20445;-91
2021/09/07 16:11:21;;;;;;;9.80;9.20;;;26.60;37.70;;;;;;5080672;28;20413;-91
2021/09/07 16:13:52;;;;;;;9.70;9.10;;;26.70;38.30;;;;;;5082804;28;20417;-93
2021/09/07 16:16:25;;;;;;;9.73;9.00;;;27.20;39.10;;;;;;5080155;28;20421;-90
2021/09/07 16:18:54;;;;;;;10.50;9.57;;;26.70;38.60;;;;;;5078354;28;20413;-88
2021/09/07 16:21:26;;;;;;;12.30;11.30;;;27.10;39.40;;;;;;5078968;28;20413;-95
2021/09/07 16:24:07;;;;;;;13.13;11.97;;;27.10;39.60;;;;;;5080454;28;20546;-90
2021/09/07 16:26:42;;;;;;;;;;;;;;;;;;;;;
2021/09/07 16:29:09;;;;;;;16.83;14.70;;;26.90;40.40;;;;;;5083285;28;20428;-89
2021/09/07 16:31:44;;;;;;;17.67;15.77;;;27.00;40.10;;;;;;5079130;28;20441;-91
2021/09/07 16:34:30;;;;;;;20.27;17.03;;;26.80;39.90;;;;;;5073715;28;20829;-92
2021/09/07 16:36:56;;;;;;;11.43;10.47;;;26.80;40.20;;;;;;5065488;28;20422;-89
2021/09/07 16:39:21;;;;;;;12.50;11.20;;;26.80;40.40;;;;;;5066819;28;20433;-94
2021/09/07 16:41:48;;;;;;;11.40;10.00;;;26.30;40.10;;;;;;4725039;28;10000543;-92
2021/09/07 16:44:14;;;;;;;12.00;10.90;;;26.70;40.40;;;;;;5086324;28;20175;-89
2021/09/07 16:46:56;;;;;;;18.67;14.20;;;26.60;41.00;;;;;;5086646;28;20562;-92
2021/09/07 16:49:32;;;;;;;15.03;13.20;;;26.50;40.30;;;;;;5071124;28;20602;-93
2021/09/07 16:51:58;;;;;;;17.33;13.77;;;26.40;40.40;;;;;;5049607;28;20414;-93
2021/09/07 16:57:17;;;;;;;11.27;10.37;;;26.30;40.80;;;;;;5071406;28;20422;-95
2021/09/07 16:59:44;;;;;;;12.33;11.40;;;26.20;41.10;;;;;;5070263;28;20413;-89
2021/09/07 17:02:44;;;;;;;19.83;12.97;;;26.30;42.00;;;;;;5066292;28;20457;-92
2021/09/07 17:05:16;;;;;;;18.73;12.10;;;26.20;41.30;;;;;;5072851;28;20409;-94
2021/09/07 17:10:55;;;;;;;13.43;9.83;;;26.10;42.00;;;;;;5068819;28;20432;-95
2021/09/07 17:13:38;;;;;;;12.10;11.03;;;26.00;42.90;;;;;;5071275;28;20422;-93
2021/09/07 17:16:07;;;;;;;12.73;11.60;;;25.90;43.60;;;;;;5069374;28;20464;-94
2021/09/07 17:18:41;;;;;;;13.97;12.27;;;25.80;43.10;;;;;;5072307;28;20477;-94
2021/09/07 17:21:47;;;;;;;15.70;10.60;;;25.80;43.50;;;;;;5068585;28;20429;-95
2021/09/07 17:24:29;;;;;;;;;;;;;;;;;;;;;
2021/09/07 17:26:58;;;;;;;14.60;13.30;;;25.50;44.40;;;;;;5073266;28;20457;-94
2021/09/07 17:29:51;;;;;;;11.93;10.60;;;25.40;45.30;;;;;;5073785;28;20465;-93
2021/09/07 17:33:16;;;;;;;12.43;10.83;;;25.40;44.70;;;;;;5074027;28;20426;-93
2021/09/07 17:43:46;;;;;;;12.60;11.50;;;24.90;47.70;;;;;;5070433;28;20541;-95
2021/09/07 17:46:11;;;;;;;13.40;12.13;;;24.80;48.20;;;;;;5065270;28;20456;-82
2021/09/07 17:48:38;;;;;;;14.73;11.80;;;25.80;49.10;;;;;;5067126;28;20430;-92
2021/09/07 17:51:05;;;;;;;11.43;10.50;;;24.80;48.90;;;;;;5082203;28;20207;-95
2021/09/07 17:53:35;;;;;;;11.57;10.63;;;25.00;50.40;;;;;;5070736;28;20425;-94
2021/09/07 17:56:12;;;;;;;;;;;;;;;;;;;;;
2021/09/07 17:58:40;;;;;;;11.70;10.60;;;24.00;49.90;;;;;;5090505;28;20491;-93
2021/09/07 18:08:56;;;;;;;10.83;9.83;;;23.30;52.10;;;;;;5048026;28;20482;-95
2021/09/07 18:11:21;;;;;;;16.03;11.60;;;23.30;53.90;;;;;;5032469;28;20458;-94
2021/09/07 18:13:53;;;;;;;11.37;10.30;;;22.90;54.50;;;;;;5038820;28;20429;-93
2021/09/07 18:16:22;;;;;;;11.60;10.40;;;22.90;54.10;;;;;;5040125;28;20203;-91
2021/09/07 18:18:48;;;;;;;14.90;12.10;;;22.80;55.20;;;;;;5039599;28;20446;-93
2021/09/07 18:21:26;;;;;;;13.90;12.40;;;22.60;55.90;;;;;;5036718;28;20431;-94
2021/09/07 18:23:59;;;;;;;15.00;12.97;;;22.60;56.10;;;;;;5026558;28;20466;-94
2021/09/07 18:26:47;;;;;;;;;;;;;;;;;;;;;
2021/09/07 18:29:19;;;;;;;13.87;11.10;;;22.60;57.10;;;;;;5037403;28;20446;-93
2021/09/07 18:31:49;;;;;;;14.93;12.23;;;22.50;57.50;;;;;;5034937;28;20446;-94
2021/09/07 18:34:18;;;;;;;12.60;11.30;;;22.40;57.70;;;;;;5037997;28;20430;-93
2021/09/07 18:37:02;;;;;;;13.67;12.17;;;23.30;58.80;;;;;;5036887;28;20430;-94
2021/09/07 18:39:36;;;;;;;16.50;11.83;;;22.10;58.50;;;;;;5035582;28;20402;-91
2021/09/07 18:42:07;;;;;;;12.77;11.57;;;22.50;59.90;;;;;;5034385;28;20469;-94
2021/09/07 18:44:51;;;;;;;13.07;11.80;;;22.00;59.60;;;;;;5034009;28;20454;-94
2021/09/07 18:47:29;;;;;;;13.97;12.57;;;21.90;60.00;;;;;;5075210;22;21408;-91
2021/09/07 18:49:59;;;;;;;13.43;12.03;;;22.20;63.20;;;;;;5323787;22;20497;-93
2021/09/07 18:52:50;;;;;;;13.03;11.73;;;21.50;63.20;;;;;;5055567;28;20935;-93
2021/09/07 18:56:07;;;;;;;15.33;12.90;;;21.60;63.70;;;;;;5055726;28;20501;-94
2021/09/07 18:58:36;;;;;;;14.30;13.10;;;21.50;65.10;;;;;;5057630;28;20433;-93
2021/09/07 19:01:14;;;;;;;15.93;12.03;;;21.50;67.80;;;;;;5053926;28;20422;-91
2021/09/07 19:03:55;;;;;;;13.37;12.07;;;21.40;67.60;;;;;;5040831;28;20457;-94
2021/09/07 19:14:49;;;;;;;13.60;12.40;;;21.20;69.20;;;;;;5161502;23;20485;-94
2021/09/07 19:17:22;;;;;;;13.20;12.10;;;21.00;72.00;;;;;;5071874;28;20430;-91
2021/09/07 19:19:48;;;;;;;12.93;11.73;;;21.30;71.70;;;;;;5070443;28;20505;-95
2021/09/07 19:22:14;;;;;;;14.17;12.83;;;21.00;74.20;;;;;;5048391;28;20477;-91
2021/09/07 19:24:48;;;;;;;13.73;12.47;;;21.10;74.40;;;;;;5050425;28;20174;-94
2021/09/07 19:27:22;;;;;;;12.77;11.50;;;20.90;72.30;;;;;;5048684;28;20172;-93
2021/09/07 19:30:11;;;;;;;14.17;12.80;;;20.90;71.80;;;;;;5064620;28;20425;-94
2021/09/07 19:32:36;;;;;;;14.83;12.80;;;20.80;73.00;;;;;;5063323;28;20751;-93
2021/09/07 19:35:12;;;;;;;16.70;13.63;;;21.90;77.00;;;;;;5049493;28;20440;-93
2021/09/07 19:37:48;;;;;;;17.80;15.93;;;20.70;74.30;;;;;;5050984;28;20178;-94
2021/09/07 19:40:17;;;;;;;13.97;12.50;;;20.50;74.50;;;;;;5053389;28;20421;-92
2021/09/07 19:42:50;;;;;;;13.93;12.73;;;20.90;76.20;;;;;;5046898;28;20462;-93
2021/09/07 19:45:20;;;;;;;15.17;13.10;;;20.50;75.80;;;;;;5049724;28;20418;-92
2021/09/07 19:47:59;;;;;;;12.63;11.43;;;20.40;76.40;;;;;;5050956;28;20504;-93
2021/09/07 19:50:27;;;;;;;13.80;12.40;;;20.30;76.20;;;;;;5045050;28;20413;-94
2021/09/07 19:52:56;;;;;;;12.57;11.53;;;20.40;77.50;;;;;;5043397;28;20509;-91
2021/09/07 19:55:29;;;;;;;13.90;12.60;;;21.40;80.50;;;;;;5045239;28;20439;-93
2021/09/07 19:57:59;;;;;;;12.03;10.93;;;20.20;78.20;;;;;;5044242;28;20437;-94
2021/09/07 20:00:29;;;;;;;12.90;11.60;;;20.00;78.80;;;;;;5046048;28;20446;-93
2021/09/07 20:03:00;;;;;;;12.00;11.10;;;19.50;80.20;;;;;;5046589;28;20465;-93
2021/09/07 20:05:26;;;;;;;12.43;11.13;;;19.80;80.90;;;;;;5044950;28;20409;-93
2021/09/07 20:07:52;;;;;;;12.30;11.30;;;19.90;85.40;;;;;;5025497;28;20425;-93
2021/09/07 20:10:33;;;;;;;13.43;11.90;;;19.90;85.50;;;;;;5046325;28;20176;-92
2021/09/07 20:13:08;;;;;;;13.00;11.77;;;20.30;85.80;;;;;;5050377;28;20167;-94
2021/09/07 20:15:38;;;;;;;13.43;12.13;;;19.10;86.40;;;;;;5047521;28;20939;-92
2021/09/07 20:18:12;;;;;;;12.50;11.50;;;19.90;86.70;;;;;;5029844;28;20415;-94
2021/09/07 20:21:05;;;;;;;13.17;11.87;;;19.50;86.60;;;;;;5031591;28;20880;-93
2021/09/07 20:23:35;;;;;;;12.90;11.60;;;19.40;89.90;;;;;;5028102;28;20480;-93
2021/09/07 20:26:54;;;;;;;19.17;11.73;;;19.20;88.30;;;;;;5027739;28;20867;-94
2021/09/07 20:29:31;;;;;;;13.23;11.80;;;19.20;89.80;;;;;;5030180;28;20427;-94
2021/09/07 20:32:05;;;;;;;13.20;11.80;;;19.10;90.40;;;;;;5031855;28;20434;-93
2021/09/07 20:34:39;;;;;;;13.40;12.10;;;17.90;88.70;;;;;;5041781;28;20435;-92
2021/09/07 20:37:14;;;;;;;13.27;11.97;;;20.60;92.20;;;;;;5041736;28;20415;-93
2021/09/07 20:39:46;;;;;;;12.53;11.00;;;18.80;90.30;;;;;;5038027;28;20437;-94
2021/09/07 20:42:22;;;;;;;;;;;;;;;;;;;;;
2021/09/07 20:44:54;;;;;;;13.07;11.77;;;18.40;92.10;;;;;;5050747;28;20453;-93
2021/09/07 20:47:20;;;;;;;11.77;10.87;;;18.90;91.00;;;;;;5032212;28;20906;-91
2021/09/07 20:49:49;;;;;;;14.40;12.77;;;19.60;91.80;;;;;;5029816;28;20450;-93
2021/09/07 20:52:14;;;;;;;15.07;11.87;;;18.90;92.90;;;;;;5030965;28;20423;-94
2021/09/07 20:54:42;;;;;;;15.97;11.97;;;18.60;92.80;;;;;;5028834;28;20421;-94
2021/09/07 20:57:20;;;;;;;15.30;11.17;;;19.60;92.90;;;;;;5027524;28;20180;-94
2021/09/07 20:59:46;;;;;;;13.30;12.20;;;18.60;93.00;;;;;;5026863;28;20449;-92
2021/09/07 21:02:16;;;;;;;12.97;11.77;;;20.30;94.00;;;;;;5025493;28;20462;-91
2021/09/07 21:04:42;;;;;;;14.17;12.77;;;18.60;93.20;;;;;;5025475;28;20638;-93
2021/09/07 21:07:09;;;;;;;14.23;11.90;;;19.70;94.10;;;;;;5025389;28;20461;-91
2021/09/07 21:09:39;;;;;;;13.97;12.73;;;17.90;93.10;;;;;;5029697;28;20199;-93
2021/09/07 21:12:24;;;;;;;11.97;10.97;;;18.70;94.00;;;;;;5029345;28;20422;-92
2021/09/07 21:15:06;;;;;;;13.73;12.53;;;18.50;93.40;;;;;;5032293;28;20481;-93
2021/09/07 21:17:32;;;;;;;13.87;11.93;;;20.30;95.30;;;;;;5028344;28;20913;-94
2021/09/07 21:20:30;;;;;;;14.03;12.70;;;19.60;94.30;;;;;;5027588;28;20417;-91
2021/09/07 21:22:59;;;;;;;15.30;11.80;;;18.60;93.60;;;;;;5001802;28;20279;-92
2021/09/07 21:25:30;;;;;;;12.57;11.47;;;18.70;93.90;;;;;;5027801;28;20464;-93
2021/09/07 21:27:59;;;;;;;13.67;12.37;;;20.20;95.00;;;;;;5028415;28;20407;-91
2021/09/07 21:30:34;;;;;;;13.67;12.13;;;20.20;94.10;;;;;;5030299;28;20419;-94
2021/09/07 21:33:02;;;;;;;13.30;12.00;;;18.60;92.90;;;;;;5027651;28;20406;-94
2021/09/07 21:35:31;;;;;;;13.33;12.17;;;18.60;92.20;;;;;;5028389;28;20913;-93
2021/09/07 21:38:18;;;;;;;13.80;12.47;;;18.70;93.30;;;;;;5027680;28;20403;-91
2021/09/07 21:40:43;;;;;;;17.20;13.10;;;18.60;93.50;;;;;;5027282;28;20454;-92
2021/09/07 21:43:11;;;;;;;15.53;13.33;;;18.80;93.40;;;;;;5045871;28;20469;-93
2021/09/07 21:45:36;;;;;;;25.30;17.47;;;19.90;95.50;;;;;;5026543;28;20183;-94
2021/09/07 21:48:08;;;;;;;13.37;12.17;;;19.40;96.10;;;;;;5028703;28;20422;-95
2021/09/07 21:50:37;;;;;;;13.07;11.80;;;18.00;95.30;;;;;;5030150;28;20172;-94
2021/09/07 21:53:03;;;;;;;12.07;11.07;;;18.00;95.90;;;;;;5035331;28;20409;-94
2021/09/07 21:55:28;;;;;;;13.97;12.70;;;19.00;96.70;;;;;;5032808;28;20484;-94
2021/09/07 21:57:54;;;;;;;13.10;11.40;;;17.40;96.20;;;;;;5034604;28;20423;-93
2021/09/07 22:00:23;;;;;;;15.30;12.23;;;18.50;96.50;;;;;;5030238;28;20411;-94
2021/09/07 22:02:49;;;;;;;12.50;11.37;;;18.10;95.50;;;;;;5029997;28;20204;-93
2021/09/07 22:05:18;;;;;;;13.50;12.23;;;18.10;95.50;;;;;;5033306;28;20414;-90
2021/09/07 22:07:44;;;;;;;14.03;12.17;;;18.00;94.60;;;;;;5029757;28;20454;-93
2021/09/07 22:10:12;;;;;;;13.23;11.30;;;19.50;96.80;;;;;;5025944;28;20410;-94
2021/09/07 22:12:38;;;;;;;13.83;12.23;;;18.10;94.60;;;;;;5026918;28;20512;-92
2021/09/07 22:15:04;;;;;;;12.07;11.07;;;19.70;95.80;;;;;;5026844;28;20474;-94
2021/09/07 22:17:32;;;;;;;12.60;11.47;;;18.20;94.30;;;;;;5028474;28;20164;-95
2021/09/07 22:19:58;;;;;;;12.73;11.57;;;18.20;94.40;;;;;;5032434;28;20477;-95
2021/09/07 22:22:32;;;;;;;13.87;12.63;;;17.80;95.50;;;;;;5031086;28;20973;-94
2021/09/07 22:25:34;;;;;;;13.57;12.30;;;18.10;94.40;;;;;;5035422;28;20179;-93
2021/09/07 22:28:06;;;;;;;12.80;11.67;;;18.20;94.30;;;;;;5035447;28;20430;-92
2021/09/07 22:30:33;;;;;;;13.47;12.27;;;18.10;94.60;;;;;;5035275;28;20402;-94
2021/09/07 22:33:18;;;;;;;14.50;13.20;;;16.90;93.80;;;;;;5037802;28;20427;-95
2021/09/07 22:35:44;;;;;;;12.83;11.50;;;18.00;95.50;;;;;;5037161;28;20435;-93
2021/09/07 22:38:34;;;;;;;11.83;10.70;;;17.60;96.40;;;;;;5030664;28;20449;-93
2021/09/07 22:41:02;;;;;;;13.63;12.33;;;17.90;96.20;;;;;;5037262;28;20196;-93
2021/09/07 22:43:32;;;;;;;13.13;11.93;;;17.40;96.80;;;;;;5036888;28;20446;-93
2021/09/07 22:46:06;;;;;;;13.67;12.40;;;17.70;96.10;;;;;;5039677;28;20419;-95
2021/09/07 22:48:48;;;;;;;12.90;11.70;;;18.60;97.60;;;;;;5041050;28;20403;-93
2021/09/07 22:51:20;;;;;;;13.20;12.00;;;18.90;97.90;;;;;;5005807;28;20419;-92
2021/09/07 22:53:48;;;;;;;12.90;11.70;;;17.30;96.90;;;;;;5035497;28;20407;-93